Time;durP1;ratioP1;P1;durP2;ratioP2;P2;SDS_P1;SDS_P2;PMS_P1;PMS_P2;Temp;Humidity;BMP_temperature;BMP_pressure;BME280_temperature;BME280_humidity;BME280_pressure;Samples;Min_cycle;Max_cycle;Signal;HPM_P1;HPM_P2
2023/05/28 00:00:30;;;;;;;25.33;6.78;;;11.20;99.90;;;;;;5099242;28;20241;-75
2023/05/28 00:02:56;;;;;;;22.88;5.68;;;11.40;99.90;;;;;;5080680;28;20052;-76
2023/05/28 00:05:22;;;;;;;16.17;5.53;;;11.60;99.90;;;;;;5100364;28;20048;-71
2023/05/28 00:07:48;;;;;;;16.33;5.60;;;11.40;99.90;;;;;;5090067;28;20582;-76
2023/05/28 00:10:14;;;;;;;15.68;5.65;;;11.30;99.90;;;;;;5098623;28;20155;-70
2023/05/28 00:12:39;;;;;;;19.65;5.82;;;11.20;99.90;;;;;;5101546;28;20083;-74
2023/05/28 00:15:06;;;;;;;23.35;6.85;;;11.70;99.90;;;;;;5081179;28;20074;-73
2023/05/28 00:17:32;;;;;;;20.60;6.03;;;11.30;99.90;;;;;;5095282;28;20071;-72
2023/05/28 00:19:58;;;;;;;18.60;6.18;;;11.30;99.90;;;;;;5102197;28;20104;-72
2023/05/28 00:22:25;;;;;;;17.58;6.03;;;11.30;99.90;;;;;;5096369;28;20052;-71
2023/05/28 00:24:50;;;;;;;14.25;5.60;;;11.30;99.90;;;;;;5100950;28;20064;-73
2023/05/28 00:27:16;;;;;;;17.23;5.93;;;11.30;99.90;;;;;;5078435;28;20051;-73
2023/05/28 00:29:43;;;;;;;17.38;6.13;;;11.30;99.90;;;;;;5098685;28;20391;-72
2023/05/28 00:32:09;;;;;;;17.77;5.43;;;11.40;99.90;;;;;;5098486;28;20382;-72
2023/05/28 00:34:35;;;;;;;20.58;6.43;;;11.60;99.90;;;;;;5098657;28;20118;-71
2023/05/28 00:37:02;;;;;;;19.63;5.85;;;11.30;99.90;;;;;;5081611;28;20055;-75
2023/05/28 00:39:28;;;;;;;22.00;6.50;;;11.30;99.90;;;;;;5097501;28;20147;-73
2023/05/28 00:42:01;;;;;;;19.98;6.85;;;11.60;99.90;;;;;;5101939;28;20123;-74
2023/05/28 00:44:27;;;;;;;21.93;6.87;;;11.30;99.90;;;;;;5098685;28;20441;-71
2023/05/28 00:46:54;;;;;;;20.45;6.25;;;11.50;99.90;;;;;;5098335;28;20044;-71
2023/05/28 00:49:20;;;;;;;20.70;6.40;;;11.30;99.90;;;;;;5072121;28;20044;-77
2023/05/28 00:51:45;;;;;;;22.40;5.82;;;11.20;99.90;;;;;;5098397;28;20509;-71
2023/05/28 00:54:11;;;;;;;15.57;5.95;;;11.30;99.90;;;;;;5099285;28;20111;-71
2023/05/28 00:56:37;;;;;;;21.65;6.80;;;11.20;99.90;;;;;;5101906;28;20500;-71
2023/05/28 00:59:04;;;;;;;18.35;6.20;;;11.20;99.90;;;;;;5097749;28;20154;-72
2023/05/28 01:01:30;;;;;;;16.27;5.38;;;11.20;99.90;;;;;;5097602;28;20533;-71
2023/05/28 01:03:55;;;;;;;19.75;6.57;;;11.20;99.90;;;;;;5098268;28;20044;-73
2023/05/28 01:06:22;;;;;;;18.88;5.45;;;11.20;99.90;;;;;;5097691;28;20051;-71
2023/05/28 01:08:49;;;;;;;16.15;5.38;;;11.20;99.90;;;;;;5093621;28;20071;-75
2023/05/28 01:11:18;;;;;;;18.30;6.05;;;11.20;99.90;;;;;;5101539;28;20526;-72
2023/05/28 01:13:45;;;;;;;19.15;5.45;;;11.50;99.90;;;;;;5098743;28;20051;-73
2023/05/28 01:16:11;;;;;;;18.35;5.97;;;11.20;99.90;;;;;;5098568;28;20051;-71
2023/05/28 01:18:39;;;;;;;15.68;5.53;;;11.10;99.90;;;;;;5091772;28;20093;-71
2023/05/28 01:21:06;;;;;;;16.15;5.57;;;11.20;99.90;;;;;;5097995;28;20062;-71
2023/05/28 01:23:41;;;;;;;15.68;5.38;;;11.20;99.90;;;;;;5078046;28;20048;-71
2023/05/28 01:26:07;;;;;;;17.50;5.82;;;11.10;99.90;;;;;;5093652;28;20082;-71
2023/05/28 01:28:33;;;;;;;20.42;7.13;;;11.10;99.90;;;;;;5093237;28;20096;-74
2023/05/28 01:30:58;;;;;;;20.23;6.25;;;11.10;99.90;;;;;;5090628;28;20040;-71
2023/05/28 01:33:24;;;;;;;15.15;5.72;;;11.00;99.90;;;;;;5093363;28;20040;-71
2023/05/28 01:35:52;;;;;;;14.18;5.65;;;11.20;99.90;;;;;;5093137;28;20475;-70
2023/05/28 01:38:21;;;;;;;22.40;6.35;;;11.10;99.90;;;;;;5093105;28;20503;-76
2023/05/28 01:40:49;;;;;;;17.85;6.60;;;11.00;99.90;;;;;;5092711;28;20036;-72
2023/05/28 01:43:15;;;;;;;17.95;6.18;;;10.90;99.90;;;;;;5092718;28;20056;-71
2023/05/28 01:45:41;;;;;;;14.23;5.57;;;11.20;99.90;;;;;;5092873;28;20040;-71
2023/05/28 01:48:08;;;;;;;14.63;5.63;;;10.90;99.90;;;;;;5092748;28;20040;-71
2023/05/28 01:50:33;;;;;;;20.25;6.07;;;11.20;99.90;;;;;;5092999;28;20044;-72
2023/05/28 01:53:00;;;;;;;18.60;6.30;;;10.90;99.90;;;;;;5092817;28;20380;-72
2023/05/28 01:55:26;;;;;;;24.52;6.85;;;10.90;99.90;;;;;;5092234;28;20028;-74
2023/05/28 01:57:51;;;;;;;21.48;7.20;;;11.00;99.90;;;;;;5092872;28;20390;-70
2023/05/28 02:00:17;;;;;;;18.10;6.30;;;10.90;99.90;;;;;;5091048;28;20112;-73
2023/05/28 02:02:44;;;;;;;21.67;6.63;;;10.90;99.90;;;;;;5092099;28;20064;-71
2023/05/28 02:05:10;;;;;;;18.80;6.18;;;10.90;99.90;;;;;;5091862;28;20044;-70
2023/05/28 02:07:36;;;;;;;15.20;5.97;;;10.90;99.90;;;;;;5092122;28;20097;-71
2023/05/28 02:10:01;;;;;;;19.52;6.47;;;11.10;99.90;;;;;;5092361;28;20032;-70
2023/05/28 02:12:28;;;;;;;17.77;6.30;;;10.90;99.90;;;;;;5092259;28;20403;-71
2023/05/28 02:14:53;;;;;;;15.27;6.25;;;10.90;99.90;;;;;;5096458;28;20052;-71
2023/05/28 02:17:20;;;;;;;17.08;6.25;;;10.90;99.90;;;;;;5092114;28;20044;-74
2023/05/28 02:19:46;;;;;;;20.33;6.85;;;10.90;99.90;;;;;;5092205;28;20442;-71
2023/05/28 02:22:11;;;;;;;22.88;6.68;;;10.90;99.90;;;;;;5077339;28;20040;-71
2023/05/28 02:24:40;;;;;;;21.08;6.40;;;10.90;99.90;;;;;;5091991;28;20392;-70
2023/05/28 02:27:07;;;;;;;23.13;7.30;;;10.90;99.90;;;;;;5091779;28;20048;-71
2023/05/28 02:29:36;;;;;;;17.98;7.43;;;10.90;99.90;;;;;;5075623;28;20093;-76
2023/05/28 02:32:03;;;;;;;20.10;6.50;;;10.90;99.90;;;;;;5074370;28;20087;-72
2023/05/28 02:34:28;;;;;;;20.75;7.47;;;10.90;99.90;;;;;;5092133;28;20076;-71
2023/05/28 02:36:55;;;;;;;20.50;6.47;;;10.90;99.90;;;;;;5091621;28;20071;-71
2023/05/28 02:39:24;;;;;;;22.92;6.30;;;10.90;99.90;;;;;;5091780;28;20891;-71
2023/05/28 02:41:50;;;;;;;15.02;6.25;;;10.90;99.90;;;;;;5091448;28;20118;-71
2023/05/28 02:44:15;;;;;;;16.38;6.85;;;10.90;99.90;;;;;;5086376;28;20443;-72
2023/05/28 02:46:41;;;;;;;18.88;6.85;;;10.90;99.90;;;;;;5091744;28;20050;-70
2023/05/28 02:49:07;;;;;;;17.58;6.75;;;10.90;99.90;;;;;;5088048;28;20131;-70
2023/05/28 02:51:33;;;;;;;24.20;7.22;;;11.20;99.90;;;;;;5091896;28;20083;-71
2023/05/28 02:53:58;;;;;;;19.90;7.10;;;10.90;99.90;;;;;;5091807;28;20070;-72
2023/05/28 02:56:24;;;;;;;16.42;6.68;;;10.90;99.90;;;;;;5091345;28;20471;-70
2023/05/28 02:58:51;;;;;;;17.25;7.35;;;10.90;99.90;;;;;;5091209;28;20050;-72
2023/05/28 03:01:17;;;;;;;17.08;6.38;;;10.90;99.90;;;;;;5085837;28;20036;-72
2023/05/28 03:03:42;;;;;;;24.10;7.10;;;10.90;99.90;;;;;;5090655;28;20043;-70
2023/05/28 03:06:08;;;;;;;17.17;6.53;;;10.80;99.90;;;;;;5091408;28;20414;-72
2023/05/28 03:08:34;;;;;;;17.50;6.28;;;10.80;99.90;;;;;;5090880;28;20111;-72
2023/05/28 03:10:59;;;;;;;16.20;6.35;;;10.80;99.90;;;;;;5090980;28;20050;-71
2023/05/28 03:13:25;;;;;;;18.48;7.43;;;10.90;99.90;;;;;;5083646;28;20097;-72
2023/05/28 03:15:51;;;;;;;21.58;6.47;;;10.90;99.90;;;;;;5091263;28;20446;-72
2023/05/28 03:18:16;;;;;;;19.17;7.28;;;10.80;99.90;;;;;;5090982;28;20048;-73
2023/05/28 03:20:42;;;;;;;23.15;7.22;;;10.70;99.90;;;;;;5082904;28;20089;-74
2023/05/28 03:23:08;;;;;;;19.05;6.90;;;10.90;99.90;;;;;;5090922;28;20093;-73
2023/05/28 03:25:33;;;;;;;20.63;7.05;;;10.70;99.90;;;;;;5090852;28;20040;-73
2023/05/28 03:27:59;;;;;;;19.95;7.15;;;10.70;99.90;;;;;;5094867;28;20043;-70
2023/05/28 03:30:24;;;;;;;21.40;7.75;;;10.70;99.90;;;;;;5090857;28;20079;-74
2023/05/28 03:32:50;;;;;;;22.98;8.05;;;10.70;99.90;;;;;;5080147;28;20079;-73
2023/05/28 03:35:16;;;;;;;24.25;7.82;;;10.70;99.90;;;;;;5091036;28;20040;-73
2023/05/28 03:37:42;;;;;;;20.02;7.22;;;10.60;99.90;;;;;;5091361;28;20068;-71
2023/05/28 03:40:08;;;;;;;17.52;7.15;;;10.60;99.90;;;;;;5090363;28;20881;-72
2023/05/28 03:42:35;;;;;;;17.95;7.35;;;10.60;99.90;;;;;;5090711;28;20106;-71
2023/05/28 03:45:01;;;;;;;16.70;6.63;;;10.80;99.90;;;;;;5089800;28;20495;-72
2023/05/28 03:47:27;;;;;;;18.88;7.45;;;10.60;99.90;;;;;;5090386;28;20086;-73
2023/05/28 03:49:52;;;;;;;17.80;7.53;;;10.60;99.90;;;;;;5090982;28;20115;-73
2023/05/28 03:52:18;;;;;;;18.50;7.30;;;10.70;99.90;;;;;;5090558;28;20051;-74
2023/05/28 03:54:44;;;;;;;21.38;8.00;;;10.60;99.90;;;;;;5090393;28;20071;-74
2023/05/28 03:57:10;;;;;;;22.90;7.65;;;10.60;99.90;;;;;;5090148;28;20590;-71
2023/05/28 03:59:36;;;;;;;19.90;7.50;;;10.50;99.90;;;;;;5078906;28;20048;-71
2023/05/28 04:02:02;;;;;;;15.93;6.63;;;10.60;99.90;;;;;;5090233;28;20093;-71
2023/05/28 04:04:28;;;;;;;16.73;7.07;;;10.60;99.90;;;;;;5089918;28;20172;-72
2023/05/28 04:06:53;;;;;;;16.48;6.50;;;10.60;99.90;;;;;;5079377;28;20135;-74
2023/05/28 04:09:19;;;;;;;14.25;6.18;;;10.80;99.90;;;;;;5089700;28;20036;-74
2023/05/28 04:11:45;;;;;;;12.27;6.30;;;11.00;99.90;;;;;;5089881;28;20063;-73
2023/05/28 04:14:11;;;;;;;18.33;6.35;;;10.60;99.90;;;;;;5089674;28;20119;-71
2023/05/28 04:16:36;;;;;;;20.60;6.80;;;10.60;99.90;;;;;;5090095;28;20114;-75
2023/05/28 04:19:02;;;;;;;18.38;7.43;;;10.60;99.90;;;;;;5089868;28;20052;-72
2023/05/28 04:21:28;;;;;;;19.35;5.93;;;11.00;99.90;;;;;;5090118;28;20051;-72
2023/05/28 04:23:55;;;;;;;20.15;6.63;;;10.60;99.90;;;;;;5085987;28;20066;-70
2023/05/28 04:26:22;;;;;;;16.70;6.47;;;10.80;99.90;;;;;;5090248;28;20048;-72
2023/05/28 04:28:48;;;;;;;26.50;6.25;;;10.70;99.90;;;;;;5089762;28;20077;-74
2023/05/28 04:31:14;;;;;;;18.45;6.68;;;10.80;99.90;;;;;;5094993;28;20088;-72
2023/05/28 04:33:39;;;;;;;16.67;5.53;;;10.70;99.90;;;;;;5097232;28;20115;-72
2023/05/28 04:36:08;;;;;;;14.20;5.60;;;10.70;99.90;;;;;;5080417;28;20052;-74
2023/05/28 04:38:33;;;;;;;20.50;6.63;;;10.70;99.90;;;;;;5078819;28;20142;-72
2023/05/28 04:41:04;;;;;;;17.83;6.30;;;10.80;99.90;;;;;;5089661;28;20111;-73
2023/05/28 04:43:30;;;;;;;18.52;6.20;;;10.90;99.90;;;;;;5089550;28;20044;-72
2023/05/28 04:45:58;;;;;;;18.77;6.97;;;10.80;99.90;;;;;;5088981;28;20043;-72
2023/05/28 04:48:27;;;;;;;21.35;7.10;;;11.10;99.90;;;;;;5089266;28;20372;-70
2023/05/28 04:50:53;;;;;;;24.67;6.90;;;10.90;99.90;;;;;;5085741;28;20051;-73
2023/05/28 04:53:19;;;;;;;16.10;6.53;;;10.90;99.90;;;;;;5089714;28;20054;-73
2023/05/28 04:55:45;;;;;;;19.42;6.32;;;11.00;99.90;;;;;;5089374;28;20040;-71
2023/05/28 04:58:11;;;;;;;15.57;6.28;;;11.00;99.90;;;;;;5088516;28;20047;-72
2023/05/28 05:00:37;;;;;;;17.92;6.30;;;11.10;99.90;;;;;;5089009;28;20119;-70
2023/05/28 05:03:03;;;;;;;18.50;6.60;;;11.10;99.90;;;;;;5088865;28;20517;-71
2023/05/28 05:05:29;;;;;;;17.77;6.25;;;11.20;99.90;;;;;;5089201;28;20048;-72
2023/05/28 05:07:54;;;;;;;23.08;6.70;;;11.30;99.90;;;;;;5089158;28;20039;-72
2023/05/28 05:10:20;;;;;;;17.05;5.93;;;11.20;99.90;;;;;;5088889;28;20076;-73
2023/05/28 05:12:46;;;;;;;17.48;5.90;;;11.30;99.90;;;;;;5089245;28;20408;-74
2023/05/28 05:15:11;;;;;;;16.35;6.43;;;11.30;99.90;;;;;;5089240;28;20170;-72
2023/05/28 05:17:37;;;;;;;18.35;7.60;;;11.60;99.90;;;;;;5088751;28;20052;-72
2023/05/28 05:20:04;;;;;;;20.40;7.35;;;11.50;99.90;;;;;;5089028;28;20047;-72
2023/05/28 05:22:31;;;;;;;17.13;7.18;;;11.40;99.90;;;;;;5089346;28;20119;-72
2023/05/28 05:24:57;;;;;;;17.55;7.07;;;11.30;99.90;;;;;;5089227;28;20040;-73
2023/05/28 05:27:22;;;;;;;19.17;6.60;;;11.60;99.90;;;;;;5089344;28;20036;-74
2023/05/28 05:29:48;;;;;;;18.20;6.75;;;11.70;99.90;;;;;;5078392;28;20381;-73
2023/05/28 05:32:14;;;;;;;19.10;6.43;;;12.00;99.90;;;;;;5088469;28;20044;-70
2023/05/28 05:34:40;;;;;;;21.10;6.70;;;11.90;99.90;;;;;;5089668;28;20403;-73
2023/05/28 05:37:06;;;;;;;17.02;5.57;;;12.00;99.90;;;;;;5078557;28;20089;-71
2023/05/28 05:39:31;;;;;;;17.85;5.93;;;12.10;99.90;;;;;;5089067;28;20449;-76
2023/05/28 05:41:57;;;;;;;13.55;5.57;;;12.10;99.90;;;;;;5088984;28;20055;-73
2023/05/28 05:44:23;;;;;;;18.67;6.22;;;12.30;99.90;;;;;;5088934;28;20059;-75
2023/05/28 05:46:49;;;;;;;15.20;5.45;;;12.30;99.90;;;;;;5088822;28;20119;-72
2023/05/28 05:49:14;;;;;;;16.55;5.60;;;12.60;99.90;;;;;;5088788;28;20115;-77
2023/05/28 05:51:40;;;;;;;12.57;5.53;;;12.50;99.90;;;;;;5089056;28;20048;-70
2023/05/28 05:54:06;;;;;;;16.50;5.57;;;12.70;99.90;;;;;;5089015;28;20123;-73
2023/05/28 05:56:32;;;;;;;18.08;5.55;;;12.70;99.90;;;;;;5088718;28;20044;-72
2023/05/28 05:58:58;;;;;;;15.50;5.57;;;12.70;99.90;;;;;;5089086;28;20126;-73
2023/05/28 06:01:24;;;;;;;18.20;5.82;;;12.90;99.90;;;;;;5088995;28;20487;-72
2023/05/28 06:03:50;;;;;;;16.33;5.05;;;13.10;99.90;;;;;;5088339;28;20059;-75
2023/05/28 06:06:16;;;;;;;12.45;5.32;;;13.10;99.90;;;;;;5088701;28;20058;-76
2023/05/28 06:08:42;;;;;;;18.02;5.53;;;13.30;99.90;;;;;;5090572;28;20060;-74
2023/05/28 06:11:08;;;;;;;17.75;6.20;;;13.30;99.90;;;;;;5081457;28;20036;-77
2023/05/28 06:13:35;;;;;;;16.27;6.22;;;13.40;99.90;;;;;;5092389;28;20118;-72
2023/05/28 06:16:02;;;;;;;18.67;5.85;;;13.60;99.90;;;;;;5092490;28;20044;-73
2023/05/28 06:18:30;;;;;;;22.63;6.43;;;13.70;99.90;;;;;;5092236;28;20050;-71
2023/05/28 06:20:56;;;;;;;15.13;6.35;;;13.80;99.90;;;;;;5099094;28;20048;-73
2023/05/28 06:23:22;;;;;;;21.65;6.05;;;13.90;99.90;;;;;;5081707;28;20097;-72
2023/05/28 06:25:48;;;;;;;27.73;6.20;;;14.10;99.90;;;;;;5092308;28;20411;-75
2023/05/28 06:28:13;;;;;;;16.00;5.85;;;14.10;99.90;;;;;;5081698;28;20171;-73
2023/05/28 06:30:42;;;;;;;15.77;6.32;;;14.20;99.90;;;;;;5082190;28;20044;-74
2023/05/28 06:33:09;;;;;;;18.50;6.18;;;14.40;99.90;;;;;;5092353;28;20048;-73
2023/05/28 06:35:35;;;;;;;16.05;6.43;;;14.50;99.90;;;;;;5092144;28;20047;-75
2023/05/28 06:38:01;;;;;;;16.20;5.78;;;14.60;99.90;;;;;;5092387;28;20039;-75
2023/05/28 06:40:26;;;;;;;16.30;5.85;;;14.70;99.90;;;;;;5092352;28;20433;-74
2023/05/28 06:42:52;;;;;;;16.63;5.78;;;14.90;99.90;;;;;;5091931;28;20115;-74
2023/05/28 06:45:18;;;;;;;15.27;6.78;;;15.00;99.90;;;;;;5081143;28;20101;-76
2023/05/28 06:47:47;;;;;;;17.42;6.47;;;15.30;99.90;;;;;;5081109;28;20044;-72
2023/05/28 06:50:13;;;;;;;19.95;6.47;;;15.40;99.90;;;;;;5080523;28;20051;-71
2023/05/28 06:52:38;;;;;;;15.10;5.30;;;15.50;99.90;;;;;;5092035;28;20040;-73
2023/05/28 06:55:05;;;;;;;15.55;5.55;;;15.70;99.90;;;;;;5091753;28;20173;-73
2023/05/28 06:57:33;;;;;;;15.80;4.97;;;15.80;99.90;;;;;;5091451;28;20087;-76
2023/05/28 06:59:58;;;;;;;16.65;6.00;;;16.00;99.90;;;;;;5077240;28;20117;-72
2023/05/28 07:02:25;;;;;;;16.52;5.05;;;16.20;99.90;;;;;;5085182;28;20060;-71
2023/05/28 07:04:51;;;;;;;15.07;4.68;;;16.40;99.90;;;;;;5091262;28;20053;-70
2023/05/28 07:07:17;;;;;;;15.88;4.85;;;16.50;99.90;;;;;;5080206;28;20074;-74
2023/05/28 07:09:42;;;;;;;14.82;5.05;;;16.60;99.90;;;;;;5091012;28;20036;-73
2023/05/28 07:12:08;;;;;;;12.90;4.95;;;16.80;99.90;;;;;;5091844;28;20053;-76
2023/05/28 07:14:34;;;;;;;14.73;5.00;;;16.80;99.90;;;;;;5091548;28;20491;-72
2023/05/28 07:17:00;;;;;;;13.57;4.45;;;16.90;99.90;;;;;;5091138;28;20040;-73
2023/05/28 07:19:26;;;;;;;10.60;4.88;;;17.20;99.90;;;;;;5091076;28;20092;-73
2023/05/28 07:21:51;;;;;;;13.15;4.63;;;17.40;99.90;;;;;;5090167;28;20757;-71
2023/05/28 07:24:17;;;;;;;15.60;4.70;;;17.30;99.90;;;;;;5060939;28;20047;-78
2023/05/28 07:26:44;;;;;;;11.50;4.80;;;17.60;99.90;;;;;;5091422;28;20044;-72
2023/05/28 07:29:13;;;;;;;11.90;3.92;;;17.70;99.90;;;;;;5091028;28;20044;-71
2023/05/28 07:31:38;;;;;;;18.73;4.40;;;17.80;99.90;;;;;;5090895;28;20036;-71
2023/05/28 07:34:04;;;;;;;10.18;3.13;;;18.00;99.90;;;;;;5074657;28;20059;-72
2023/05/28 07:36:31;;;;;;;14.32;4.35;;;18.20;99.90;;;;;;5090606;28;20446;-73
2023/05/28 07:38:57;;;;;;;9.57;3.75;;;18.40;99.90;;;;;;5074674;28;20162;-74
2023/05/28 07:41:22;;;;;;;10.93;3.75;;;18.60;99.90;;;;;;5090753;28;20470;-71
2023/05/28 07:43:48;;;;;;;11.80;3.60;;;18.80;99.90;;;;;;5090979;28;20048;-73
2023/05/28 07:46:16;;;;;;;15.45;4.07;;;18.90;99.90;;;;;;5073418;28;20048;-72
2023/05/28 07:48:43;;;;;;;12.55;3.95;;;19.10;99.90;;;;;;5090823;28;20040;-71
2023/05/28 07:51:10;;;;;;;10.88;3.70;;;19.10;99.90;;;;;;5090382;28;20067;-73
2023/05/28 07:53:36;;;;;;;13.70;3.85;;;19.20;99.90;;;;;;5090362;28;20505;-72
2023/05/28 07:56:01;;;;;;;12.55;4.07;;;19.30;99.90;;;;;;5072526;28;20039;-73
2023/05/28 07:58:27;;;;;;;11.88;4.10;;;19.50;99.90;;;;;;5072042;28;20143;-72
2023/05/28 08:00:53;;;;;;;12.68;4.22;;;19.50;99.90;;;;;;5090553;28;20040;-71
2023/05/28 08:03:18;;;;;;;12.95;3.80;;;19.70;99.90;;;;;;5090131;28;20143;-74
2023/05/28 08:05:44;;;;;;;10.80;4.10;;;19.70;99.90;;;;;;5090330;28;20415;-71
2023/05/28 08:08:10;;;;;;;11.35;4.40;;;19.80;99.90;;;;;;5083079;28;20047;-70
2023/05/28 08:10:35;;;;;;;7.82;3.70;;;19.90;99.90;;;;;;5089920;28;20093;-72
2023/05/28 08:13:01;;;;;;;10.30;3.47;;;20.20;99.90;;;;;;5086447;28;20119;-73
2023/05/28 08:15:27;;;;;;;9.68;3.38;;;20.20;99.90;;;;;;5090319;28;20426;-74
2023/05/28 08:17:52;;;;;;;11.70;3.92;;;20.30;99.90;;;;;;5090792;28;20410;-73
2023/05/28 08:20:19;;;;;;;8.65;3.35;;;20.30;99.90;;;;;;5093653;28;20044;-71
2023/05/28 08:22:44;;;;;;;10.63;3.35;;;20.20;99.90;;;;;;5088729;28;20056;-71
2023/05/28 08:25:10;;;;;;;8.25;3.17;;;20.40;99.90;;;;;;5097025;28;20402;-72
2023/05/28 08:27:36;;;;;;;7.90;3.15;;;20.30;99.90;;;;;;5085146;28;20048;-71
2023/05/28 08:30:02;;;;;;;7.28;3.35;;;20.50;99.90;;;;;;5089965;28;20028;-72
2023/05/28 08:32:27;;;;;;;7.53;3.20;;;20.50;99.90;;;;;;5088982;28;20040;-71
2023/05/28 08:34:53;;;;;;;9.38;3.60;;;20.80;99.90;;;;;;5086718;28;20048;-72
2023/05/28 08:37:19;;;;;;;7.65;2.92;;;20.80;99.70;;;;;;5101796;28;20046;-72
2023/05/28 08:39:45;;;;;;;8.32;3.50;;;20.90;99.90;;;;;;5093864;28;20047;-72
2023/05/28 08:42:11;;;;;;;6.93;3.45;;;20.90;98.30;;;;;;5088855;28;20051;-73
2023/05/28 08:44:36;;;;;;;8.85;4.00;;;21.00;98.30;;;;;;5096982;28;20120;-73
2023/05/28 08:47:03;;;;;;;9.73;3.90;;;21.10;98.70;;;;;;5101034;28;20474;-74
2023/05/28 08:49:35;;;;;;;7.55;3.97;;;21.10;99.00;;;;;;5074840;28;20079;-73
2023/05/28 08:52:02;;;;;;;10.95;4.90;;;21.20;97.60;;;;;;5089633;28;20044;-73
2023/05/28 08:54:29;;;;;;;9.57;4.60;;;21.30;98.40;;;;;;5089337;28;20040;-74
2023/05/28 08:56:54;;;;;;;8.73;4.53;;;21.60;98.70;;;;;;5089704;28;20507;-72
2023/05/28 08:59:21;;;;;;;8.23;4.32;;;21.70;98.30;;;;;;5089363;28;20133;-72
2023/05/28 09:01:47;;;;;;;11.75;4.40;;;21.70;97.30;;;;;;5089604;28;20052;-73
2023/05/28 09:04:13;;;;;;;10.20;4.65;;;21.70;97.90;;;;;;5072335;28;20052;-70
2023/05/28 09:06:39;;;;;;;8.40;4.53;;;21.80;97.90;;;;;;5089460;28;20044;-73
2023/05/28 09:09:07;;;;;;;9.65;5.43;;;21.80;97.70;;;;;;5089213;28;20051;-72
2023/05/28 09:11:34;;;;;;;8.82;4.80;;;21.90;96.10;;;;;;5089535;28;20044;-73
2023/05/28 09:14:10;;;;;;;9.30;4.78;;;21.90;96.10;;;;;;5089909;28;20087;-73
2023/05/28 09:16:36;;;;;;;12.43;5.68;;;22.00;94.70;;;;;;5089333;28;20055;-71
2023/05/28 09:19:04;;;;;;;11.05;5.00;;;22.00;96.50;;;;;;5089588;28;20050;-73
2023/05/28 09:21:29;;;;;;;10.18;4.90;;;22.10;96.30;;;;;;5098769;28;20059;-74
2023/05/28 09:23:55;;;;;;;10.15;5.00;;;22.20;96.40;;;;;;5101366;28;20056;-74
2023/05/28 09:26:21;;;;;;;12.73;5.72;;;22.40;95.70;;;;;;5102096;28;20086;-74
2023/05/28 09:28:49;;;;;;;12.60;5.00;;;22.40;95.30;;;;;;5090765;28;20091;-73
2023/05/28 09:31:15;;;;;;;9.90;4.93;;;22.50;96.00;;;;;;5088588;28;20047;-73
2023/05/28 09:33:47;;;;;;;8.45;4.65;;;22.50;95.50;;;;;;5073163;28;20044;-72
2023/05/28 09:36:17;;;;;;;10.07;5.43;;;22.70;94.70;;;;;;5082016;28;20127;-75
2023/05/28 09:38:43;;;;;;;9.90;5.22;;;22.70;93.60;;;;;;5098519;28;20035;-75
2023/05/28 09:41:19;;;;;;;10.57;5.78;;;22.60;94.60;;;;;;5082427;28;20135;-74
2023/05/28 09:43:45;;;;;;;11.02;4.70;;;22.90;94.00;;;;;;5103076;28;20043;-73
2023/05/28 09:46:11;;;;;;;11.48;5.88;;;23.10;94.50;;;;;;5102642;28;20666;-74
2023/05/28 09:48:37;;;;;;;11.73;6.32;;;23.00;94.30;;;;;;5083907;28;20043;-74
2023/05/28 09:51:04;;;;;;;9.18;5.72;;;23.20;93.20;;;;;;5102578;28;20093;-73
2023/05/28 09:53:36;;;;;;;9.68;5.78;;;23.10;92.10;;;;;;5083645;28;20135;-74
2023/05/28 09:56:02;;;;;;;12.98;5.90;;;23.10;92.80;;;;;;5101870;28;20101;-75
2023/05/28 09:58:34;;;;;;;9.07;5.07;;;23.20;93.50;;;;;;5093324;28;20115;-75
2023/05/28 10:01:09;;;;;;;9.90;5.30;;;23.20;91.70;;;;;;5101803;28;20376;-73
2023/05/28 10:03:38;;;;;;;11.70;7.00;;;23.30;91.30;;;;;;5088217;28;20044;-74
2023/05/28 10:06:11;;;;;;;11.90;6.28;;;23.10;92.60;;;;;;5105109;28;20044;-76
2023/05/28 10:08:37;;;;;;;11.27;6.10;;;23.30;92.80;;;;;;5104958;28;20036;-74
2023/05/28 10:11:07;;;;;;;9.98;6.10;;;23.30;93.10;;;;;;5104500;28;20043;-76
2023/05/28 10:13:34;;;;;;;14.82;6.57;;;23.20;92.10;;;;;;5102586;28;20044;-75
2023/05/28 10:16:00;;;;;;;10.60;6.97;;;23.20;92.30;;;;;;5083219;28;20119;-75
2023/05/28 10:18:27;;;;;;;13.95;7.07;;;23.40;92.20;;;;;;5101455;28;20123;-75
2023/05/28 10:20:53;;;;;;;12.38;6.63;;;23.20;91.70;;;;;;5080509;28;20478;-77
2023/05/28 10:23:20;;;;;;;11.60;7.15;;;23.30;91.90;;;;;;5088727;28;20044;-73
2023/05/28 10:25:47;;;;;;;12.63;6.95;;;23.50;90.80;;;;;;5092503;28;20454;-75
2023/05/28 10:28:16;;;;;;;10.40;6.45;;;23.50;90.30;;;;;;5072288;28;20047;-76
2023/05/28 10:30:42;;;;;;;11.38;6.28;;;23.50;89.60;;;;;;5093779;28;20055;-77
2023/05/28 10:33:10;;;;;;;11.10;6.45;;;23.60;90.80;;;;;;5094879;28;20434;-77
2023/05/28 10:35:49;;;;;;;9.48;5.57;;;23.60;90.40;;;;;;5085425;28;20071;-75
2023/05/28 10:38:15;;;;;;;9.07;5.45;;;23.90;90.70;;;;;;5084671;28;20051;-75
2023/05/28 10:40:41;;;;;;;9.32;4.82;;;23.80;90.00;;;;;;5092082;28;20394;-77
2023/05/28 10:43:38;;;;;;;7.63;4.63;;;23.80;89.60;;;;;;5081815;28;20056;-75
2023/05/28 10:46:10;;;;;;;8.20;3.85;;;23.80;86.50;;;;;;5100801;28;20047;-76
2023/05/28 10:48:40;;;;;;;8.82;4.05;;;23.80;86.60;;;;;;5100937;28;20040;-78
2023/05/28 10:51:06;;;;;;;9.60;4.10;;;23.70;83.90;;;;;;5101863;28;20044;-78
2023/05/28 10:53:32;;;;;;;8.35;3.65;;;23.90;87.70;;;;;;5103891;28;20039;-76
2023/05/28 10:55:58;;;;;;;7.45;3.67;;;23.90;88.00;;;;;;5097063;28;20079;-78
2023/05/28 10:58:25;;;;;;;6.82;3.15;;;24.00;88.20;;;;;;5099815;28;20058;-75
2023/05/28 11:00:51;;;;;;;8.32;3.15;;;24.10;85.50;;;;;;5100814;28;20108;-78
2023/05/28 11:03:17;;;;;;;8.27;2.88;;;24.10;88.00;;;;;;5053476;28;20509;-75
2023/05/28 11:05:44;;;;;;;7.78;2.33;;;24.10;88.00;;;;;;5051687;28;20769;-76
2023/05/28 11:08:10;;;;;;;7.13;2.50;;;24.00;87.80;;;;;;5051533;28;20488;-76
2023/05/28 11:10:36;;;;;;;7.57;2.65;;;24.10;87.80;;;;;;5051193;28;20041;-80
2023/05/28 11:13:02;;;;;;;9.45;3.10;;;24.10;88.40;;;;;;5049956;28;20045;-76
2023/05/28 11:15:27;;;;;;;9.10;2.65;;;24.20;87.80;;;;;;5049783;28;20048;-78
2023/05/28 11:17:53;;;;;;;9.00;2.85;;;24.30;89.10;;;;;;5050862;28;20452;-76
2023/05/28 11:20:26;;;;;;;8.02;2.50;;;24.30;87.90;;;;;;5051439;28;20052;-75
2023/05/28 11:22:52;;;;;;;7.18;2.85;;;24.40;88.70;;;;;;5051217;28;20055;-80
2023/05/28 11:25:21;;;;;;;14.20;3.28;;;24.50;88.90;;;;;;5046962;28;20041;-73
2023/05/28 11:27:47;;;;;;;8.95;3.10;;;24.60;89.60;;;;;;5043647;28;20194;-80
2023/05/28 11:30:16;;;;;;;7.78;2.45;;;24.60;89.70;;;;;;5051170;28;20538;-75
2023/05/28 11:32:42;;;;;;;7.57;2.95;;;24.50;90.10;;;;;;5051474;28;20053;-77
2023/05/28 11:35:13;;;;;;;10.43;2.80;;;24.70;90.40;;;;;;5048752;28;20365;-77
2023/05/28 11:37:40;;;;;;;9.65;3.20;;;24.80;90.00;;;;;;5047311;28;20041;-76
2023/05/28 11:40:10;;;;;;;8.45;2.83;;;24.60;90.40;;;;;;5050740;28;20044;-73
2023/05/28 11:42:42;;;;;;;6.28;2.63;;;24.50;90.10;;;;;;5051012;28;20090;-75
2023/05/28 11:45:09;;;;;;;7.13;2.67;;;24.50;90.30;;;;;;5050038;28;20458;-77
2023/05/28 11:47:36;;;;;;;13.50;3.22;;;24.60;90.80;;;;;;5045085;28;20037;-72
2023/05/28 11:50:14;;;;;;;9.23;2.90;;;24.50;90.60;;;;;;5051009;28;20064;-83
2023/05/28 11:52:58;;;;;;;8.63;2.80;;;24.50;90.50;;;;;;5050678;28;20055;-86
2023/05/28 11:58:21;;;;;;;;;;;;;;;;;;;;;
2023/05/28 12:00:56;;;;;;;11.65;3.40;;;24.60;91.10;;;;;;5050300;28;20091;-74
2023/05/28 12:03:25;;;;;;;8.00;3.28;;;24.50;90.60;;;;;;5091073;28;20062;-75
2023/05/28 12:05:51;;;;;;;11.63;3.92;;;24.40;91.00;;;;;;5086716;28;20048;-76
2023/05/28 12:08:20;;;;;;;11.02;3.95;;;24.60;90.90;;;;;;5102303;28;20050;-77
2023/05/28 12:10:45;;;;;;;12.55;3.72;;;24.50;91.10;;;;;;5099180;28;20085;-75
2023/05/28 12:13:14;;;;;;;12.20;3.75;;;24.50;91.40;;;;;;5094590;28;20056;-76
2023/05/28 12:15:40;;;;;;;9.13;3.40;;;24.30;91.10;;;;;;5093082;28;20075;-73
2023/05/28 12:18:06;;;;;;;11.27;4.38;;;24.30;91.60;;;;;;5080568;28;20059;-76
2023/05/28 12:20:40;;;;;;;12.02;3.30;;;24.50;91.70;;;;;;5099533;28;20044;-73
2023/05/28 12:23:13;;;;;;;8.55;3.70;;;24.40;91.70;;;;;;5080484;28;20048;-73
2023/05/28 12:25:49;;;;;;;15.55;3.97;;;24.60;92.30;;;;;;5099839;28;20079;-75
2023/05/28 12:28:17;;;;;;;14.07;3.28;;;24.40;92.60;;;;;;5102138;28;20118;-74
2023/05/28 12:30:45;;;;;;;11.82;3.88;;;24.40;93.30;;;;;;5080684;28;20059;-75
2023/05/28 12:33:11;;;;;;;13.02;4.57;;;24.20;93.10;;;;;;5063467;28;20059;-73
2023/05/28 12:35:37;;;;;;;10.15;3.35;;;24.30;93.60;;;;;;5098696;28;20483;-75
2023/05/28 12:38:03;;;;;;;11.88;4.32;;;24.30;93.80;;;;;;5101257;28;20085;-73
2023/05/28 12:40:29;;;;;;;13.27;4.57;;;24.10;93.30;;;;;;5102095;28;20484;-74